createdAt,value
2023-02-11T00:00:12.755Z,96678.66
2023-02-11T00:03:15.809Z,96672.56
2023-02-11T00:06:18.917Z,96663.53
2023-02-11T00:09:22.058Z,96665.63
2023-02-11T00:12:27.065Z,96669.34
2023-02-11T00:15:30.180Z,96666.44
2023-02-11T00:18:33.125Z,96672.00
2023-02-11T00:21:36.452Z,96672.00
2023-02-11T00:24:39.524Z,96671.22
2023-02-11T00:27:43.988Z,96660.03
2023-02-11T00:30:47.080Z,96665.09
2023-02-11T00:33:50.702Z,96654.72
2023-02-11T00:36:55.070Z,96665.09
2023-02-11T00:39:58.049Z,96659.22
2023-02-11T00:43:02.503Z,96666.16
2023-02-11T00:46:05.933Z,96666.94
2023-02-11T00:49:09.096Z,96652.06
2023-02-11T00:52:12.121Z,96651.25
2023-02-11T00:55:15.146Z,96659.22
2023-02-11T00:58:19.561Z,96641.91
2023-02-11T01:01:22.782Z,96649.41
2023-02-11T01:04:25.871Z,96654.72
2023-02-11T01:07:29.713Z,96647.81
2023-02-11T01:10:33.062Z,96643.28
2023-02-11T01:13:38.307Z,96649.41
2023-02-11T01:16:41.561Z,96631.25
2023-02-11T01:19:44.653Z,96637.16
2023-02-11T01:22:47.712Z,96637.09
2023-02-11T01:25:51.161Z,96637.66
2023-02-11T01:28:55.661Z,96622.41
2023-02-11T01:31:58.870Z,96636.06
2023-02-11T01:35:02.136Z,96644.03
2023-02-11T01:38:05.128Z,96638.16
2023-02-11T01:41:10.730Z,96631.53
2023-02-11T01:44:26.869Z,96645.63
2023-02-11T01:47:29.861Z,96630.72
2023-02-11T01:50:33.316Z,96632.03
2023-02-11T01:53:55.573Z,96635.00
2023-02-11T01:57:18.977Z,96634.44
2023-02-11T02:00:27.142Z,96633.41
2023-02-11T02:03:32.481Z,96630.72
2023-02-11T02:06:38.995Z,96635.25
2023-02-11T02:09:47.518Z,96624.38
2023-02-11T02:12:50.652Z,96631.53
2023-02-11T02:15:57.393Z,96631.78
2023-02-11T02:19:20.788Z,96631.78
2023-02-11T02:23:01.965Z,96625.31
2023-02-11T02:26:19.971Z,96632.84
2023-02-11T02:29:56.073Z,96623.28
2023-02-11T02:33:24.171Z,96631.00
2023-02-11T02:36:36.649Z,96633.09
2023-02-11T02:39:40.602Z,96626.19
2023-02-11T02:42:45.682Z,96627.53
2023-02-11T02:45:49.009Z,96625.94
2023-02-11T02:48:55.156Z,96625.34
2023-02-11T02:52:22.741Z,96629.66
2023-02-11T02:55:53.788Z,96625.34
2023-02-11T02:59:21.922Z,96628.84
2023-02-11T03:02:30.756Z,96639.47
2023-02-11T03:05:46.595Z,96645.03
2023-02-11T03:08:56.247Z,96634.97
2023-02-11T03:12:00.962Z,96638.66
2023-02-11T03:15:06.891Z,96628.00
2023-02-11T03:18:13.198Z,96633.34
2023-02-11T03:21:19.494Z,96639.69
2023-02-11T03:24:29.416Z,96627.47
2023-02-11T03:27:40.034Z,96626.41
2023-02-11T03:30:48.317Z,96625.31
2023-02-11T03:34:00.632Z,96621.09
2023-02-11T03:37:11.049Z,96626.41
2023-02-11T03:40:18.674Z,96617.63
2023-02-11T03:43:25.272Z,96631.72
2023-02-11T03:46:33.532Z,96632.00
2023-02-11T03:49:39.205Z,96630.66
2023-02-11T03:52:44.095Z,96635.44
2023-02-11T03:55:50.532Z,96623.22
2023-02-11T03:58:53.916Z,96618.97
2023-02-11T04:01:57.779Z,96624.00
2023-02-11T04:05:01.112Z,96623.47
2023-02-11T04:08:06.261Z,96623.22
2023-02-11T04:11:09.469Z,96633.03
2023-02-11T04:14:12.503Z,96622.41
2023-02-11T04:17:15.573Z,96628.53
2023-02-11T04:20:18.962Z,96633.03
2023-02-11T04:23:23.313Z,96628.53
2023-02-11T04:26:26.369Z,96606.88
2023-02-11T04:29:29.607Z,96625.31
2023-02-11T04:32:32.692Z,96627.72
2023-02-11T04:35:35.697Z,96630.38
2023-02-11T04:38:40.219Z,96622.66
2023-02-11T04:41:43.491Z,96616.56
2023-02-11T04:44:46.597Z,96617.91
2023-02-11T04:47:49.598Z,96601.91
2023-02-11T04:50:52.897Z,96611.75
2023-02-11T04:53:57.326Z,96610.97
2023-02-11T04:57:00.330Z,96616.84
2023-02-11T05:00:03.355Z,96615.25
2023-02-11T05:03:06.336Z,96617.09
2023-02-11T05:06:10.973Z,96597.63
2023-02-11T05:09:16.804Z,96596.59
2023-02-11T05:12:19.947Z,96610.97
2023-02-11T05:15:22.892Z,96583.22
2023-02-11T05:18:25.895Z,96605.66
2023-02-11T05:21:28.974Z,96597.94
2023-02-11T05:24:33.901Z,96606.72
2023-02-11T05:27:37.168Z,96605.66
2023-02-11T05:30:40.238Z,96610.19
2023-02-11T05:33:43.333Z,96607.53
2023-02-11T05:36:46.358Z,96606.19
2023-02-11T05:39:51.144Z,96603.53
2023-02-11T05:42:54.345Z,96599.25
2023-02-11T05:45:57.377Z,96606.19
2023-02-11T05:49:00.461Z,96605.63
2023-02-11T05:52:03.519Z,96612.28
2023-02-11T05:55:08.414Z,96614.16
2023-02-11T05:58:11.687Z,96595.47
2023-02-11T06:01:14.663Z,96615.22
2023-02-11T06:04:17.724Z,96613.59
2023-02-11T06:07:20.818Z,96625.03
2023-02-11T06:10:25.239Z,96626.91
2023-02-11T06:13:28.311Z,96625.84
2023-02-11T06:16:31.573Z,96618.34
2023-02-11T06:19:34.695Z,96625.28
2023-02-11T06:22:37.729Z,96617.06
2023-02-11T06:25:42.131Z,96621.31
2023-02-11T06:28:45.274Z,96619.47
2023-02-11T06:31:48.436Z,96618.16
2023-02-11T06:34:51.524Z,96623.44
2023-02-11T06:37:54.693Z,96620.69
2023-02-11T06:40:59.155Z,96622.69
2023-02-11T06:44:02.190Z,96622.19
2023-02-11T06:47:05.700Z,96627.22
2023-02-11T06:50:10.155Z,96627.47
2023-02-11T06:53:13.250Z,96631.13
2023-02-11T06:56:20.064Z,96631.47
2023-02-11T06:59:23.272Z,96639.03
2023-02-11T07:02:26.415Z,96639.34
2023-02-11T07:05:29.422Z,96599.88
2023-02-11T07:08:32.492Z,96641.81
2023-02-11T07:11:36.957Z,96631.44
2023-02-11T07:14:40.527Z,96633.84
2023-02-11T07:17:43.562Z,96629.28
2023-02-11T07:20:46.914Z,96626.84
2023-02-11T07:23:50.305Z,96624.19
2023-02-11T07:26:54.777Z,96618.06
2023-02-11T07:29:58.105Z,96610.88
2023-02-11T07:33:01.284Z,96606.88
2023-02-11T07:36:05.330Z,96613.00
2023-02-11T07:39:08.351Z,96606.06
2023-02-11T07:42:12.698Z,96599.16
2023-02-11T07:45:16.443Z,96593.56
2023-02-11T07:48:19.426Z,96596.53
2023-02-11T07:51:24.294Z,96596.81
2023-02-11T07:54:27.353Z,96584.03
2023-02-11T07:57:31.773Z,96578.97
2023-02-11T08:00:34.838Z,96563.78
2023-02-11T08:03:38.552Z,96565.38
2023-02-11T08:06:43.730Z,96582.97
2023-02-11T08:09:46.938Z,96586.16
2023-02-11T08:12:51.391Z,96583.25
2023-02-11T08:15:54.387Z,96580.84
2023-02-11T08:18:59.565Z,96578.19
2023-02-11T08:22:02.586Z,96579.53
2023-02-11T08:25:06.229Z,96574.72
2023-02-11T08:28:10.649Z,96577.66
2023-02-11T08:31:15.632Z,96572.84
2023-02-11T08:34:19.733Z,96583.00
2023-02-11T08:37:22.870Z,96583.22
2023-02-11T08:40:26.469Z,96568.03
2023-02-11T08:43:31.072Z,96586.69
2023-02-11T08:46:34.135Z,96580.28
2023-02-11T08:49:37.625Z,96578.19
2023-02-11T08:52:40.742Z,96585.09
2023-02-11T08:55:50.428Z,96578.44
2023-02-11T08:58:55.756Z,96582.16
2023-02-11T09:01:58.824Z,96581.88
2023-02-11T09:05:01.848Z,96576.03
2023-02-11T09:08:04.879Z,96582.69
2023-02-11T09:11:08.278Z,96558.44
2023-02-11T09:14:18.227Z,96568.53
2023-02-11T09:17:21.321Z,96567.44
2023-02-11T09:20:24.771Z,96566.09
2023-02-11T09:23:27.769Z,96562.09
2023-02-11T09:26:33.365Z,96560.78
2023-02-11T09:29:38.415Z,96555.75
2023-02-11T09:32:41.485Z,96514.97
2023-02-11T09:35:44.577Z,96548.84
2023-02-11T09:38:48.279Z,96526.72
2023-02-11T09:42:11.741Z,96548.84
2023-02-11T09:45:20.584Z,96533.94
2023-02-11T09:48:24.612Z,96533.94
2023-02-11T09:51:37.017Z,96527.53
2023-02-11T09:54:51.688Z,96521.19
2023-02-11T09:57:55.055Z,96512.38
2023-02-11T10:01:08.336Z,96513.72
2023-02-11T10:04:22.160Z,96501.47
2023-02-11T10:07:30.749Z,96488.94
2023-02-11T10:10:46.650Z,96480.16
2023-02-11T10:14:02.611Z,96480.16
2023-02-11T10:17:20.252Z,96479.09
2023-02-11T10:20:31.326Z,96470.56
2023-02-11T10:23:38.096Z,96464.97
2023-02-11T10:26:42.682Z,96443.94
2023-02-11T10:29:50.967Z,96440.75
2023-02-11T10:33:01.178Z,96439.13
2023-02-11T10:36:05.561Z,96423.69
2023-02-11T10:39:14.086Z,96418.63
2023-02-11T10:42:17.298Z,96411.69
2023-02-11T10:45:28.370Z,96412.47
2023-02-11T10:48:42.815Z,96399.69
2023-02-11T10:51:45.911Z,96385.84
2023-02-11T10:55:01.064Z,96381.84
2023-02-11T10:58:04.668Z,96372.53
2023-02-11T11:01:23.402Z,96367.47
2023-02-11T11:04:41.657Z,96373.06
2023-02-11T11:07:54.752Z,96361.06
2023-02-11T11:11:04.948Z,96362.91
2023-02-11T11:14:20.717Z,96357.56
2023-02-11T11:17:24.010Z,96351.19
2023-02-11T11:20:32.484Z,96356.53
2023-02-11T11:23:37.824Z,96346.13
2023-02-11T11:26:43.802Z,96347.47
2023-02-11T11:29:50.187Z,96347.22
2023-02-11T11:32:53.688Z,96352.28
2023-02-11T11:36:05.228Z,96351.47
2023-02-11T11:39:21.614Z,96342.72
2023-02-11T11:42:28.490Z,96338.97
2023-02-11T11:45:31.830Z,96319.31
2023-02-11T11:48:39.722Z,96331.28
2023-02-11T11:51:50.651Z,96327.31
2023-02-11T11:55:00.228Z,96321.69
2023-02-11T11:58:03.471Z,96321.97
2023-02-11T12:01:22.076Z,96314.22
2023-02-11T12:04:38.298Z,96305.72
2023-02-11T12:07:55.415Z,96299.06
2023-02-11T12:11:08.686Z,96292.41
2023-02-11T12:14:23.002Z,96288.41
2023-02-11T12:17:41.364Z,96288.16
2023-02-11T12:21:01.030Z,96286.28
2023-02-11T12:24:27.607Z,96282.03
2023-02-11T12:27:47.203Z,96274.31
2023-02-11T12:31:13.401Z,96267.16
2023-02-11T12:34:43.489Z,96253.25
2023-02-11T12:38:11.054Z,96247.94
2023-02-11T12:41:43.670Z,96249.00
2023-02-11T12:45:00.026Z,96246.06
2023-02-11T12:48:26.607Z,96247.91
2023-02-11T12:51:42.588Z,96245.47
2023-02-11T12:54:50.443Z,96246.78
2023-02-11T12:57:57.891Z,96231.59
2023-02-11T13:01:06.926Z,96228.16
2023-02-11T13:04:18.264Z,96232.94
2023-02-11T13:07:26.040Z,96229.78
2023-02-11T13:10:35.367Z,96231.97
2023-02-11T13:13:49.104Z,96219.75
2023-02-11T13:16:52.627Z,96217.81
2023-02-11T13:20:02.238Z,96224.22
2023-02-11T13:23:14.817Z,96220.78
2023-02-11T13:26:27.063Z,96213.06
2023-02-11T13:29:49.220Z,96211.75
2023-02-11T13:33:21.124Z,96205.34
2023-02-11T13:36:26.826Z,96209.63
2023-02-11T13:39:30.018Z,96210.16
2023-02-11T13:42:35.571Z,96207.72
2023-02-11T13:45:44.579Z,96199.50
2023-02-11T13:48:50.650Z,96187.56
2023-02-11T13:51:56.108Z,96188.34
2023-02-11T13:55:04.714Z,96195.28
2023-02-11T13:58:20.075Z,96190.53
2023-02-11T14:01:43.432Z,96185.75
2023-02-11T14:05:37.540Z,96175.88
2023-02-11T14:09:00.919Z,96179.81
2023-02-11T14:12:26.353Z,96177.16
2023-02-11T14:15:40.800Z,96166.50
2023-02-11T14:19:03.299Z,96172.88
2023-02-11T14:22:08.008Z,96174.72
2023-02-11T14:25:22.854Z,96166.47
2023-02-11T14:28:32.978Z,96167.53
2023-02-11T14:31:43.347Z,96143.88
2023-02-11T14:34:54.625Z,96160.91
2023-02-11T14:38:05.934Z,96155.84
2023-02-11T14:41:17.418Z,96153.78
2023-02-11T14:44:23.270Z,96163.03
2023-02-11T14:47:35.610Z,96168.34
2023-02-11T14:50:44.658Z,96168.34
2023-02-11T14:53:51.625Z,96171.78
2023-02-11T14:57:09.200Z,96158.00
2023-02-11T15:00:18.837Z,96168.09
2023-02-11T15:03:43.269Z,96159.06
2023-02-11T15:06:50.598Z,96167.56
2023-02-11T15:09:55.432Z,96154.75
2023-02-11T15:13:00.687Z,96153.19
2023-02-11T15:16:08.600Z,96149.47
2023-02-11T15:19:22.642Z,96150.31
2023-02-11T15:22:29.496Z,96147.94
2023-02-11T15:25:34.232Z,96140.50
2023-02-11T15:28:37.488Z,96131.16
2023-02-11T15:31:40.575Z,96139.16
2023-02-11T15:34:44.084Z,96133.03
2023-02-11T15:37:50.637Z,96129.28
2023-02-11T15:40:56.670Z,96131.97
2023-02-11T15:43:59.753Z,96132.97
2023-02-11T15:47:02.986Z,96126.03
2023-02-11T15:50:07.330Z,96133.00
2023-02-11T15:53:30.728Z,96130.09
2023-02-11T15:56:43.203Z,96136.72
2023-02-11T15:59:50.685Z,96133.50
2023-02-11T16:02:54.276Z,96130.34
2023-02-11T16:05:57.345Z,96136.19
2023-02-11T16:09:04.735Z,96140.97
2023-02-11T16:12:27.110Z,96142.81
2023-02-11T16:15:45.051Z,96139.38
2023-02-11T16:19:03.402Z,96131.69
2023-02-11T16:22:11.370Z,96140.44
2023-02-11T16:25:20.833Z,96138.59
2023-02-11T16:28:23.890Z,96134.34
2023-02-11T16:31:34.263Z,96141.53
2023-02-11T16:34:38.145Z,96146.06
2023-02-11T16:37:41.147Z,96142.59
2023-02-11T16:40:49.281Z,96140.22
2023-02-11T16:43:52.420Z,96138.91
2023-02-11T16:46:56.189Z,96136.47
2023-02-11T16:50:00.564Z,96145.25
2023-02-11T16:53:06.465Z,96135.97
2023-02-11T16:56:17.116Z,96138.91
2023-02-11T16:59:20.261Z,96142.63
2023-02-11T17:02:27.456Z,96141.03
2023-02-11T17:05:30.529Z,96136.00
2023-02-11T17:08:33.844Z,96138.94
2023-02-11T17:11:38.276Z,96133.59
2023-02-11T17:14:41.373Z,96137.59
2023-02-11T17:17:45.920Z,96134.41
2023-02-11T17:20:49.082Z,96137.84
2023-02-11T17:23:52.068Z,96124.31
2023-02-11T17:26:56.969Z,96114.94
2023-02-11T17:30:00.018Z,96122.97
2023-02-11T17:33:03.112Z,96124.81
2023-02-11T17:36:08.015Z,96137.34
2023-02-11T17:39:11.352Z,96134.69
2023-02-11T17:42:15.823Z,96136.53
2023-02-11T17:45:22.090Z,96139.47
2023-02-11T17:48:25.464Z,96137.59
2023-02-11T17:51:31.538Z,96145.03
2023-02-11T17:54:34.662Z,96139.41
2023-02-11T17:57:39.129Z,96141.00
2023-02-11T18:00:43.452Z,96144.50
2023-02-11T18:03:47.088Z,96145.31
2023-02-11T18:06:50.429Z,96147.19
2023-02-11T18:09:54.128Z,96152.22
2023-02-11T18:12:58.642Z,96161.28
2023-02-11T18:16:04.630Z,96158.09
2023-02-11T18:19:09.375Z,96156.47
2023-02-11T18:22:12.623Z,96154.38
2023-02-11T18:25:16.576Z,96147.97
2023-02-11T18:28:21.056Z,96145.84
2023-02-11T18:31:24.329Z,96153.28
2023-02-11T18:34:27.567Z,96154.88
2023-02-11T18:37:30.690Z,96137.94
2023-02-11T18:40:33.716Z,96144.03
2023-02-11T18:46:41.043Z,96123.47
2023-02-11T18:49:44.115Z,96122.69
2023-02-11T18:52:47.394Z,96127.75
2023-02-11T18:55:51.116Z,96122.72
2023-02-11T19:01:59.487Z,96115.00
2023-02-11T19:05:02.601Z,96120.03
2023-02-11T19:08:06.006Z,96135.22
2023-02-11T19:11:09.247Z,96122.72
2023-02-11T19:14:14.004Z,96127.75
2023-02-11T19:17:17.040Z,96125.34
2023-02-11T19:20:20.473Z,96126.41
2023-02-11T19:23:23.506Z,96115.47
2023-02-11T19:26:26.667Z,96122.13
2023-02-11T19:29:32.271Z,96128.78
2023-02-11T19:32:35.339Z,96128.97
2023-02-11T19:35:38.356Z,96119.13
2023-02-11T19:38:41.487Z,96118.09
2023-02-11T19:41:44.488Z,96109.88
2023-02-11T19:44:49.095Z,96105.34
2023-02-11T19:47:56.580Z,96098.41
2023-02-11T19:50:59.695Z,96096.31
2023-02-11T19:54:02.824Z,96095.25
2023-02-11T19:57:05.898Z,96097.63
2023-02-11T20:00:11.909Z,96099.22
2023-02-11T20:03:15.033Z,96093.09
2023-02-11T20:06:21.706Z,96096.56
2023-02-11T20:09:26.581Z,96093.03
2023-02-11T20:12:29.608Z,96090.63
2023-02-11T20:15:34.092Z,96093.81
2023-02-11T20:18:38.297Z,96096.19
2023-02-11T20:21:41.400Z,96086.16
2023-02-11T20:24:44.436Z,96088.06
2023-02-11T20:27:47.622Z,96077.97
2023-02-11T20:30:58.241Z,96073.97
2023-02-11T20:34:02.250Z,96063.09
2023-02-11T20:37:06.098Z,96065.47
2023-02-11T20:40:09.556Z,96059.38
2023-02-11T20:43:12.552Z,96062.31
2023-02-11T20:46:19.471Z,96057.22
2023-02-11T20:49:24.503Z,96046.34
2023-02-11T20:52:28.792Z,96041.53
2023-02-11T20:55:31.859Z,96046.59
2023-02-11T20:58:35.686Z,96042.34
2023-02-11T21:01:42.930Z,96036.22
2023-02-11T21:04:46.022Z,96034.34
2023-02-11T21:07:49.075Z,96028.47
2023-02-11T21:10:52.115Z,96021.31
2023-02-11T21:13:55.221Z,96027.69
2023-02-11T21:16:59.893Z,96015.72
2023-02-11T21:20:03.111Z,96014.69
2023-02-11T21:23:06.185Z,96011.50
2023-02-11T21:26:09.784Z,96003.25
2023-02-11T21:29:13.048Z,96004.03
2023-02-11T21:32:17.775Z,96008.28
2023-02-11T21:38:23.559Z,96014.69
2023-02-11T21:41:27.450Z,96009.66
2023-02-11T21:44:32.090Z,96006.97
2023-02-11T21:47:37.552Z,96007.25
2023-02-11T21:50:41.289Z,96002.72
2023-02-11T21:53:44.477Z,96013.91
2023-02-11T21:56:47.474Z,95997.94
2023-02-11T21:59:50.476Z,96008.03
2023-02-11T22:02:54.898Z,96005.63
2023-02-11T22:05:57.990Z,96005.13
2023-02-11T22:09:04.343Z,95999.00
2023-02-11T22:12:08.848Z,96005.63
2023-02-11T22:15:11.980Z,96005.63
2023-02-11T22:18:16.427Z,96012.00
2023-02-11T22:21:21.524Z,96009.34
2023-02-11T22:24:24.577Z,96010.69
2023-02-11T22:27:27.656Z,96005.34
2023-02-11T22:30:30.665Z,96007.50
2023-02-11T22:33:35.564Z,96001.66
2023-02-11T22:36:40.573Z,95999.28
2023-02-11T22:39:43.803Z,96008.06
2023-02-11T22:42:46.885Z,96002.72
2023-02-11T22:45:50.278Z,95997.41
2023-02-11T22:48:55.115Z,95996.63
2023-02-11T22:51:58.100Z,95997.69
2023-02-11T22:55:01.313Z,96005.13
2023-02-11T22:58:04.529Z,95997.41
2023-02-11T23:01:07.803Z,95991.81
2023-02-11T23:04:15.295Z,95996.63
2023-02-11T23:07:18.288Z,95998.22
2023-02-11T23:10:21.469Z,96006.47
2023-02-11T23:13:24.444Z,96000.06
2023-02-11T23:16:29.361Z,96000.34
2023-02-11T23:19:33.877Z,95991.03
2023-02-11T23:22:36.866Z,95979.34
2023-02-11T23:25:44.182Z,95975.88
2023-02-11T23:28:47.710Z,95970.56
2023-02-11T23:31:51.218Z,95964.97
2023-02-11T23:34:55.716Z,95959.66
2023-02-11T23:37:58.708Z,95960.44
2023-02-11T23:41:01.738Z,95967.63
2023-02-11T23:44:04.837Z,95968.44
2023-02-11T23:47:07.835Z,95973.75
2023-02-11T23:50:13.311Z,95964.72
2023-02-11T23:53:16.528Z,95961.81
2023-02-11T23:56:24.077Z,95970.06
2023-02-11T23:59:27.194Z,95961.78
